createdAt,value
2022-10-29T00:02:20.861Z,71.56
2022-10-29T00:04:47.813Z,71.98
2022-10-29T00:07:14.765Z,71.84
2022-10-29T00:09:42.002Z,71.77
2022-10-29T00:12:09.066Z,71.93
2022-10-29T00:14:36.203Z,71.83
2022-10-29T00:17:03.690Z,71.75
2022-10-29T00:19:31.001Z,71.56
2022-10-29T00:21:57.973Z,71.41
2022-10-29T00:24:24.914Z,71.24
2022-10-29T00:26:51.932Z,71.65
2022-10-29T00:29:19.038Z,71.46
2022-10-29T00:31:45.948Z,71.54
2022-10-29T00:34:12.995Z,71.63
2022-10-29T00:36:42.124Z,71.45
2022-10-29T00:39:14.605Z,71.48
2022-10-29T00:41:41.864Z,71.39
2022-10-29T00:44:14.757Z,70.99
2022-10-29T00:46:50.446Z,71.12
2022-10-29T00:49:18.507Z,71.34
2022-10-29T00:51:46.755Z,71.06
2022-10-29T00:54:16.132Z,70.97
2022-10-29T00:56:57.883Z,70.75
2022-10-29T00:59:25.795Z,70.82
2022-10-29T01:01:54.103Z,71.22
2022-10-29T01:04:21.732Z,70.77
2022-10-29T01:06:49.430Z,71.20
2022-10-29T01:09:16.394Z,70.86
2022-10-29T01:12:10.380Z,70.64
2022-10-29T01:14:57.788Z,70.44
2022-10-29T01:17:27.727Z,69.78
2022-10-29T01:20:25.728Z,69.85
2022-10-29T01:23:26.116Z,69.65
2022-10-29T01:26:14.624Z,70.10
2022-10-29T01:28:41.481Z,69.92
2022-10-29T01:31:34.399Z,69.90
2022-10-29T01:34:13.378Z,70.02
2022-10-29T01:37:09.175Z,70.31
2022-10-29T01:39:44.673Z,70.62
2022-10-29T01:42:19.796Z,70.69
2022-10-29T01:45:13.180Z,70.81
2022-10-29T01:47:47.705Z,71.13
2022-10-29T01:50:21.553Z,70.97
2022-10-29T01:52:50.328Z,71.00
2022-10-29T01:55:23.063Z,71.01
2022-10-29T02:02:35.215Z,71.01
2022-10-29T02:05:12.146Z,71.07
2022-10-29T02:07:51.639Z,71.16
2022-10-29T02:10:24.162Z,71.50
2022-10-29T02:12:53.698Z,71.40
2022-10-29T02:15:37.024Z,71.43
2022-10-29T02:18:07.265Z,71.10
2022-10-29T02:20:35.352Z,71.19
2022-10-29T02:23:02.417Z,71.76
2022-10-29T02:25:29.390Z,71.61
2022-10-29T02:28:00.487Z,71.38
2022-10-29T02:30:27.385Z,71.76
2022-10-29T02:32:54.575Z,71.57
2022-10-29T02:35:21.827Z,71.63
2022-10-29T02:37:48.854Z,71.91
2022-10-29T02:40:15.928Z,72.05
2022-10-29T02:42:42.959Z,72.04
2022-10-29T02:45:10.270Z,71.97
2022-10-29T02:47:37.229Z,72.64
2022-10-29T02:50:04.439Z,72.04
2022-10-29T02:52:31.450Z,72.19
2022-10-29T02:54:58.373Z,72.22
2022-10-29T02:57:25.207Z,72.08
2022-10-29T02:59:52.155Z,72.19
2022-10-29T03:02:19.308Z,72.26
2022-10-29T03:04:46.233Z,72.14
2022-10-29T03:07:13.272Z,72.42
2022-10-29T03:09:40.240Z,72.43
2022-10-29T03:12:07.565Z,72.19
2022-10-29T03:14:34.571Z,72.52
2022-10-29T03:17:01.597Z,72.49
2022-10-29T03:19:28.673Z,72.28
2022-10-29T03:21:55.717Z,71.83
2022-10-29T03:24:22.618Z,71.77
2022-10-29T03:26:49.429Z,72.05
2022-10-29T03:29:16.377Z,72.07
2022-10-29T03:31:43.491Z,72.00
2022-10-29T03:34:10.476Z,71.88
2022-10-29T03:36:37.367Z,71.73
2022-10-29T03:39:04.560Z,71.40
2022-10-29T03:41:31.542Z,71.29
2022-10-29T03:43:58.503Z,71.24
2022-10-29T03:46:25.379Z,70.88
2022-10-29T03:48:52.421Z,70.83
2022-10-29T03:51:19.349Z,70.97
2022-10-29T03:53:46.388Z,70.97
2022-10-29T03:56:13.350Z,70.54
2022-10-29T03:58:40.195Z,70.37
2022-10-29T04:01:09.164Z,70.19
2022-10-29T04:03:38.534Z,70.14
2022-10-29T04:06:12.146Z,70.00
2022-10-29T04:08:39.363Z,70.13
2022-10-29T04:11:08.194Z,69.72
2022-10-29T04:13:35.507Z,69.95
2022-10-29T04:16:02.482Z,70.42
2022-10-29T04:18:29.412Z,70.28
2022-10-29T04:29:23.653Z,70.05
2022-10-29T04:31:51.099Z,70.07
2022-10-29T04:34:18.179Z,70.26
2022-10-29T04:36:45.177Z,70.04
2022-10-29T04:39:12.099Z,69.74
2022-10-29T04:41:39.070Z,69.60
2022-10-29T04:44:05.974Z,69.73
2022-10-29T04:46:32.874Z,69.90
2022-10-29T04:48:59.949Z,69.86
2022-10-29T04:51:27.459Z,70.34
2022-10-29T04:53:54.311Z,70.66
2022-10-29T04:56:21.267Z,70.62
2022-10-29T04:58:51.654Z,70.70
2022-10-29T05:01:19.247Z,71.04
2022-10-29T05:03:46.365Z,71.13
2022-10-29T05:06:13.329Z,71.26
2022-10-29T05:08:40.247Z,71.12
2022-10-29T05:11:07.338Z,71.21
2022-10-29T05:13:34.905Z,71.23
2022-10-29T05:16:02.019Z,71.42
2022-10-29T05:18:29.111Z,71.30
2022-10-29T05:20:56.653Z,71.63
2022-10-29T05:23:23.876Z,71.49
2022-10-29T05:25:52.349Z,71.25
2022-10-29T05:28:21.618Z,71.10
2022-10-29T05:30:50.790Z,70.89
2022-10-29T05:33:20.070Z,70.85
2022-10-29T05:35:47.302Z,70.99
2022-10-29T05:38:16.606Z,70.39
2022-10-29T05:40:45.311Z,70.13
2022-10-29T05:43:14.050Z,70.41
2022-10-29T05:45:41.915Z,70.39
2022-10-29T05:50:39.838Z,70.27
2022-10-29T05:53:10.725Z,70.11
2022-10-29T05:55:38.378Z,69.99
2022-10-29T05:58:09.276Z,69.59
2022-10-29T06:00:38.358Z,69.67
2022-10-29T06:03:12.630Z,69.21
2022-10-29T06:05:39.675Z,69.35
2022-10-29T06:08:08.760Z,69.46
2022-10-29T06:10:35.945Z,69.28
2022-10-29T06:13:02.830Z,69.14
2022-10-29T06:15:29.737Z,68.90
2022-10-29T06:17:56.879Z,68.67
2022-10-29T06:20:24.212Z,68.65
2022-10-29T06:22:58.831Z,68.66
2022-10-29T06:25:27.186Z,68.52
2022-10-29T06:28:04.296Z,68.39
2022-10-29T06:30:33.271Z,68.04
2022-10-29T06:33:01.004Z,67.76
2022-10-29T06:35:28.791Z,67.86
2022-10-29T06:37:56.338Z,68.23
2022-10-29T06:40:23.681Z,68.28
2022-10-29T06:42:50.741Z,68.47
2022-10-29T06:45:17.794Z,67.95
2022-10-29T06:47:45.605Z,68.23
2022-10-29T06:50:13.602Z,68.22
2022-10-29T06:52:40.633Z,68.54
2022-10-29T06:55:08.715Z,68.62
2022-10-29T06:57:36.276Z,68.74
2022-10-29T07:00:07.592Z,68.31
2022-10-29T07:02:36.006Z,68.74
2022-10-29T07:05:03.067Z,68.53
2022-10-29T07:07:30.445Z,68.29
2022-10-29T07:09:58.366Z,68.48
2022-10-29T07:12:25.439Z,68.13
2022-10-29T07:14:52.467Z,67.75
2022-10-29T07:17:19.458Z,67.85
2022-10-29T07:19:46.417Z,67.62
2022-10-29T07:22:13.410Z,67.86
2022-10-29T07:24:40.459Z,68.06
2022-10-29T07:27:07.380Z,68.35
2022-10-29T07:29:35.319Z,68.32
2022-10-29T07:32:04.677Z,68.73
2022-10-29T07:34:31.667Z,68.80
2022-10-29T07:36:58.606Z,68.03
2022-10-29T07:39:25.521Z,67.96
2022-10-29T07:41:54.155Z,67.92
2022-10-29T07:44:23.779Z,67.34
2022-10-29T07:46:50.754Z,67.31
2022-10-29T07:49:17.689Z,66.90
2022-10-29T07:51:44.915Z,66.89
2022-10-29T07:54:14.723Z,67.00
2022-10-29T07:56:45.113Z,66.93
2022-10-29T07:59:15.781Z,66.77
2022-10-29T08:01:42.768Z,67.13
2022-10-29T08:04:10.182Z,67.18
2022-10-29T08:06:37.108Z,67.42
2022-10-29T08:09:04.142Z,67.84
2022-10-29T08:11:32.597Z,68.60
2022-10-29T08:13:59.819Z,69.07
2022-10-29T08:16:26.712Z,69.29
2022-10-29T08:18:53.635Z,70.02
2022-10-29T08:21:20.723Z,69.81
2022-10-29T08:23:47.687Z,70.29
2022-10-29T08:26:14.721Z,70.46
2022-10-29T08:28:43.020Z,70.49
2022-10-29T08:31:10.029Z,70.41
2022-10-29T08:33:37.154Z,70.12
2022-10-29T08:36:04.255Z,70.29
2022-10-29T08:38:31.292Z,70.34
2022-10-29T08:41:03.890Z,70.56
2022-10-29T08:43:36.402Z,70.21
2022-10-29T08:46:04.319Z,70.22
2022-10-29T08:48:48.185Z,70.38
2022-10-29T08:51:36.927Z,70.78
2022-10-29T08:54:25.555Z,70.93
2022-10-29T08:56:55.333Z,70.69
2022-10-29T08:59:25.316Z,70.88
2022-10-29T09:01:55.872Z,70.50
2022-10-29T09:04:22.866Z,70.41
2022-10-29T09:07:11.588Z,70.36
2022-10-29T09:09:47.386Z,70.41
2022-10-29T09:12:26.680Z,69.83
2022-10-29T09:14:59.592Z,70.60
2022-10-29T09:22:04.164Z,69.81
2022-10-29T09:25:25.636Z,70.28
2022-10-29T09:29:07.474Z,70.64
2022-10-29T09:31:37.251Z,70.30
2022-10-29T09:34:18.154Z,70.58
2022-10-29T09:36:47.758Z,70.22
2022-10-29T09:39:24.528Z,70.60
2022-10-29T09:41:54.981Z,70.69
2022-10-29T09:44:27.283Z,70.66
2022-10-29T09:47:09.482Z,70.24
2022-10-29T09:49:52.134Z,70.25
2022-10-29T09:52:29.276Z,69.78
2022-10-29T09:54:58.038Z,69.84
2022-10-29T09:57:33.739Z,69.79
2022-10-29T10:00:14.105Z,69.60
2022-10-29T10:02:49.220Z,69.64
2022-10-29T10:05:23.274Z,70.01
2022-10-29T10:08:13.792Z,69.99
2022-10-29T10:10:59.208Z,70.37
2022-10-29T10:13:32.007Z,69.50
2022-10-29T10:16:01.597Z,70.54
2022-10-29T10:18:48.841Z,70.00
2022-10-29T10:21:33.203Z,69.98
2022-10-29T10:24:00.854Z,70.01
2022-10-29T10:26:43.946Z,70.05
2022-10-29T10:29:22.290Z,69.72
2022-10-29T10:32:15.600Z,69.83
2022-10-29T10:34:42.628Z,69.52
2022-10-29T10:37:09.554Z,70.26
2022-10-29T10:39:37.868Z,69.84
2022-10-29T10:42:33.849Z,69.69
2022-10-29T10:45:02.617Z,69.69
2022-10-29T10:47:34.224Z,69.76
2022-10-29T10:50:22.995Z,69.43
2022-10-29T10:52:51.874Z,68.78
2022-10-29T10:55:27.553Z,69.53
2022-10-29T10:58:21.587Z,69.16
2022-10-29T11:00:58.311Z,68.75
2022-10-29T11:03:35.262Z,68.69
2022-10-29T11:06:16.675Z,68.55
2022-10-29T11:08:53.564Z,68.73
2022-10-29T11:11:30.617Z,68.97
2022-10-29T11:14:05.994Z,68.78
2022-10-29T11:16:45.652Z,69.11
2022-10-29T11:19:18.612Z,69.15
2022-10-29T11:22:11.466Z,69.16
2022-10-29T11:25:10.472Z,69.18
2022-10-29T11:28:03.776Z,68.86
2022-10-29T11:30:39.170Z,68.81
2022-10-29T11:33:18.926Z,68.96
2022-10-29T11:35:49.323Z,69.19
2022-10-29T11:38:21.862Z,69.10
2022-10-29T11:41:23.353Z,69.03
2022-10-29T11:43:50.430Z,69.08
2022-10-29T11:46:29.078Z,69.07
2022-10-29T11:49:22.756Z,68.50
2022-10-29T11:52:16.560Z,68.58
2022-10-29T11:55:16.051Z,68.26
2022-10-29T11:57:56.253Z,68.85
2022-10-29T12:00:24.644Z,68.67
2022-10-29T12:03:00.622Z,68.50
2022-10-29T12:05:46.619Z,68.30
2022-10-29T12:08:32.293Z,68.24
2022-10-29T12:11:21.023Z,68.87
2022-10-29T12:14:35.760Z,68.75
2022-10-29T12:17:35.511Z,68.60
2022-10-29T12:20:22.230Z,68.78
2022-10-29T12:23:15.611Z,68.79
2022-10-29T12:25:54.000Z,68.66
2022-10-29T12:28:39.689Z,68.95
2022-10-29T12:31:13.872Z,69.21
2022-10-29T12:34:23.997Z,68.70
2022-10-29T12:37:09.993Z,69.27
2022-10-29T12:39:42.706Z,69.65
2022-10-29T12:42:27.901Z,69.65
2022-10-29T12:45:13.063Z,69.42
2022-10-29T12:48:05.524Z,69.40
2022-10-29T12:50:39.014Z,69.63
2022-10-29T12:53:24.634Z,69.32
2022-10-29T12:55:52.763Z,69.70
2022-10-29T12:58:46.863Z,69.66
2022-10-29T13:01:38.242Z,69.80
2022-10-29T13:04:32.312Z,69.85
2022-10-29T13:07:23.132Z,70.07
2022-10-29T13:10:22.469Z,70.06
2022-10-29T13:12:55.521Z,69.92
2022-10-29T13:15:27.862Z,69.87
2022-10-29T13:17:57.814Z,69.60
2022-10-29T13:20:37.303Z,69.70
2022-10-29T13:23:24.151Z,69.70
2022-10-29T13:26:09.578Z,69.50
2022-10-29T13:28:36.371Z,69.71
2022-10-29T13:31:06.289Z,69.80
2022-10-29T13:33:33.234Z,70.01
2022-10-29T13:36:03.140Z,69.80
2022-10-29T13:39:05.014Z,70.04
2022-10-29T13:41:40.347Z,70.62
2022-10-29T13:44:11.800Z,70.80
2022-10-29T13:47:02.100Z,70.74
2022-10-29T13:49:43.283Z,70.80
2022-10-29T13:52:10.262Z,70.47
2022-10-29T13:54:46.957Z,70.51
2022-10-29T13:57:25.849Z,70.83
2022-10-29T14:00:01.576Z,71.19
2022-10-29T14:02:42.478Z,71.05
2022-10-29T14:05:16.334Z,70.91
2022-10-29T14:08:01.694Z,71.24
2022-10-29T14:10:41.608Z,71.28
2022-10-29T14:13:16.118Z,70.68
2022-10-29T14:16:06.333Z,71.27
2022-10-29T14:18:41.428Z,70.97
2022-10-29T14:21:29.547Z,70.79
2022-10-29T14:24:04.859Z,71.04
2022-10-29T14:26:37.771Z,71.11
2022-10-29T14:29:17.592Z,71.18
2022-10-29T14:31:45.336Z,71.00
2022-10-29T14:34:27.422Z,71.05
2022-10-29T14:36:59.998Z,70.75
2022-10-29T14:39:48.339Z,71.06
2022-10-29T14:42:32.218Z,70.75
2022-10-29T14:45:03.013Z,70.71
2022-10-29T14:47:37.719Z,70.46
2022-10-29T14:50:15.002Z,70.99
2022-10-29T14:52:49.744Z,71.12
2022-10-29T14:55:28.020Z,71.19
2022-10-29T14:58:04.253Z,71.56
2022-10-29T15:00:35.880Z,71.49
2022-10-29T15:03:05.121Z,71.26
2022-10-29T15:05:35.075Z,71.12
2022-10-29T15:08:08.798Z,71.38
2022-10-29T15:11:05.473Z,71.24
2022-10-29T15:13:34.972Z,71.14
2022-10-29T15:16:20.858Z,71.11
2022-10-29T15:18:50.919Z,71.19
2022-10-29T15:21:33.235Z,71.05
2022-10-29T15:24:08.345Z,70.78
2022-10-29T15:26:44.702Z,70.86
2022-10-29T15:29:12.468Z,71.00
2022-10-29T15:31:50.655Z,70.85
2022-10-29T15:34:40.545Z,70.76
2022-10-29T15:37:33.648Z,70.79
2022-10-29T15:40:09.340Z,71.16
2022-10-29T15:42:37.319Z,70.85
2022-10-29T15:45:15.619Z,70.51
2022-10-29T15:47:50.970Z,71.11
2022-10-29T15:50:44.960Z,71.21
2022-10-29T15:53:15.315Z,70.74
2022-10-29T15:55:42.919Z,70.12
2022-10-29T15:58:13.868Z,70.07
2022-10-29T16:00:41.056Z,69.52
2022-10-29T16:03:21.766Z,70.08
2022-10-29T16:05:51.974Z,69.61
2022-10-29T16:08:45.338Z,70.01
2022-10-29T16:11:18.217Z,69.90
2022-10-29T16:13:53.574Z,70.23
2022-10-29T16:16:24.401Z,70.02
2022-10-29T16:18:52.860Z,70.01
2022-10-29T16:21:24.503Z,70.06
2022-10-29T16:23:52.143Z,70.03
2022-10-29T16:26:24.743Z,70.05
2022-10-29T16:28:53.506Z,70.55
2022-10-29T16:31:28.790Z,70.40
2022-10-29T16:33:58.711Z,71.84
2022-10-29T16:36:26.022Z,70.75
2022-10-29T16:38:53.048Z,70.75
2022-10-29T16:41:20.980Z,71.01
2022-10-29T16:43:48.928Z,71.17
2022-10-29T16:46:16.246Z,71.41
2022-10-29T16:48:43.633Z,71.43
2022-10-29T16:51:10.860Z,71.43
2022-10-29T16:53:37.772Z,71.53
2022-10-29T16:56:05.486Z,71.86
2022-10-29T16:58:32.537Z,72.12
2022-10-29T17:01:07.612Z,71.89
2022-10-29T17:03:35.481Z,72.15
2022-10-29T17:06:08.646Z,72.34
2022-10-29T17:08:37.071Z,72.43
2022-10-29T17:11:06.632Z,71.86
2022-10-29T17:13:34.948Z,72.03
2022-10-29T17:16:10.203Z,72.58
2022-10-29T17:18:37.442Z,72.64
2022-10-29T17:21:04.872Z,73.00
2022-10-29T17:23:32.845Z,72.73
2022-10-29T17:26:00.787Z,72.94
2022-10-29T17:28:28.352Z,72.63
2022-10-29T17:30:55.475Z,72.74
2022-10-29T17:33:22.689Z,72.45
2022-10-29T17:35:49.755Z,72.75
2022-10-29T17:38:16.736Z,72.81
2022-10-29T17:40:46.334Z,72.98
2022-10-29T17:43:13.647Z,72.94
2022-10-29T17:45:42.241Z,73.12
2022-10-29T17:48:09.390Z,72.74
2022-10-29T17:50:38.665Z,72.84
2022-10-29T17:53:05.623Z,72.81
2022-10-29T17:55:32.611Z,72.90
2022-10-29T17:58:00.004Z,73.22
2022-10-29T18:00:27.416Z,73.48
2022-10-29T18:02:54.493Z,73.41
2022-10-29T18:05:21.592Z,73.83
2022-10-29T18:07:48.808Z,73.75
2022-10-29T18:10:18.492Z,73.74
2022-10-29T18:12:47.812Z,73.99
2022-10-29T18:15:15.104Z,73.82
2022-10-29T18:17:42.320Z,73.57
2022-10-29T18:20:10.310Z,73.64
2022-10-29T18:22:37.359Z,73.87
2022-10-29T18:25:04.887Z,73.94
2022-10-29T18:27:31.968Z,74.05
2022-10-29T18:29:58.907Z,73.96
2022-10-29T18:32:25.883Z,73.86
2022-10-29T18:34:52.952Z,74.04
2022-10-29T18:37:20.294Z,74.10
2022-10-29T18:39:47.351Z,74.04
2022-10-29T18:42:14.484Z,74.04
2022-10-29T18:44:41.667Z,74.05
2022-10-29T18:47:08.790Z,74.19
2022-10-29T18:49:35.965Z,74.11
2022-10-29T18:52:03.165Z,74.21
2022-10-29T18:54:30.536Z,74.45
2022-10-29T18:56:57.871Z,74.26
2022-10-29T18:59:27.153Z,74.15
2022-10-29T19:01:54.426Z,74.29
2022-10-29T19:04:21.549Z,73.96
2022-10-29T19:06:48.776Z,73.61
2022-10-29T19:09:16.001Z,73.66
2022-10-29T19:11:44.052Z,73.72
2022-10-29T19:14:14.042Z,73.83
2022-10-29T19:16:41.398Z,74.18
2022-10-29T19:19:12.633Z,74.26
2022-10-29T19:21:41.281Z,74.04
2022-10-29T19:24:12.504Z,73.84
2022-10-29T19:26:39.736Z,73.49
2022-10-29T19:29:08.020Z,74.17
2022-10-29T19:31:39.056Z,74.15
2022-10-29T19:34:08.271Z,74.08
2022-10-29T19:36:38.048Z,74.17
2022-10-29T19:39:05.475Z,73.88
2022-10-29T19:41:32.903Z,74.26
2022-10-29T19:44:01.314Z,74.37
2022-10-29T19:46:28.924Z,74.32
2022-10-29T19:48:57.861Z,74.23
2022-10-29T19:51:24.913Z,74.71
2022-10-29T19:53:51.837Z,74.51
2022-10-29T19:56:19.888Z,74.35
2022-10-29T19:58:47.079Z,74.36
2022-10-29T20:01:16.559Z,73.97
2022-10-29T20:03:44.593Z,74.10
2022-10-29T20:06:12.719Z,73.97
2022-10-29T20:08:39.669Z,73.60
2022-10-29T20:11:07.413Z,73.60
2022-10-29T20:13:34.992Z,73.23
2022-10-29T20:16:08.287Z,73.60
2022-10-29T20:18:38.272Z,73.63
2022-10-29T20:23:38.134Z,73.77
2022-10-29T20:26:05.958Z,73.47
2022-10-29T20:28:33.800Z,73.56
2022-10-29T20:31:32.225Z,73.96
2022-10-29T20:34:00.685Z,73.81
2022-10-29T20:36:31.271Z,73.73
2022-10-29T20:38:58.569Z,73.61
2022-10-29T20:41:25.782Z,73.77
2022-10-29T20:43:55.281Z,73.58
2022-10-29T20:46:23.902Z,73.54
2022-10-29T20:48:51.113Z,73.62
2022-10-29T20:51:18.080Z,73.34
2022-10-29T20:53:45.287Z,73.72
2022-10-29T20:56:16.007Z,73.76
2022-10-29T20:58:43.935Z,73.68
2022-10-29T21:01:14.697Z,73.43
2022-10-29T21:03:42.553Z,73.43
2022-10-29T21:06:17.012Z,73.27
2022-10-29T21:08:48.124Z,73.33
2022-10-29T21:11:17.033Z,73.56
2022-10-29T21:13:44.359Z,73.45
2022-10-29T21:16:17.815Z,73.63
2022-10-29T21:18:47.098Z,73.69
2022-10-29T21:21:14.201Z,74.31
2022-10-29T21:23:41.247Z,73.82
2022-10-29T21:26:11.986Z,74.09
2022-10-29T21:28:39.304Z,73.89
2022-10-29T21:31:06.254Z,74.17
2022-10-29T21:33:33.558Z,74.16
2022-10-29T21:36:00.623Z,74.16
2022-10-29T21:38:28.619Z,74.17
2022-10-29T21:40:55.986Z,74.42
2022-10-29T21:43:22.955Z,74.32
2022-10-29T21:45:51.214Z,74.33
2022-10-29T21:48:18.904Z,74.13
2022-10-29T21:50:46.294Z,74.61
2022-10-29T21:53:13.718Z,74.51
2022-10-29T21:55:40.667Z,74.68
2022-10-29T21:58:08.004Z,75.18
2022-10-29T22:00:35.176Z,75.07
2022-10-29T22:03:04.519Z,75.08
2022-10-29T22:05:31.965Z,75.05
2022-10-29T22:07:59.448Z,75.13
2022-10-29T22:10:26.803Z,75.40
2022-10-29T22:12:54.368Z,75.57
2022-10-29T22:15:21.497Z,75.96
2022-10-29T22:17:48.521Z,75.78
2022-10-29T22:20:15.625Z,75.67
2022-10-29T22:22:43.868Z,75.81
2022-10-29T22:25:10.763Z,75.71
2022-10-29T22:27:37.724Z,75.83
2022-10-29T22:30:05.344Z,75.67
2022-10-29T22:32:32.367Z,75.60
2022-10-29T22:34:59.261Z,75.74
2022-10-29T22:37:27.856Z,75.49
2022-10-29T22:39:54.699Z,75.64
2022-10-29T22:42:21.710Z,75.68
2022-10-29T22:44:48.669Z,75.63
2022-10-29T22:47:15.530Z,75.11
2022-10-29T22:49:42.515Z,74.93
2022-10-29T22:52:11.648Z,75.01
2022-10-29T22:54:38.696Z,74.80
2022-10-29T22:57:05.758Z,74.84
2022-10-29T22:59:32.683Z,74.61
2022-10-29T23:01:59.740Z,74.93
2022-10-29T23:04:26.987Z,74.45
2022-10-29T23:06:55.715Z,74.70
2022-10-29T23:09:26.182Z,74.82
2022-10-29T23:11:53.221Z,74.27
2022-10-29T23:14:20.215Z,74.48
2022-10-29T23:16:47.246Z,74.62
2022-10-29T23:19:14.213Z,74.82
2022-10-29T23:21:41.212Z,74.62
2022-10-29T23:24:08.823Z,74.48
2022-10-29T23:26:35.832Z,74.69
2022-10-29T23:29:03.006Z,74.72
2022-10-29T23:31:30.049Z,74.71
2022-10-29T23:33:58.749Z,74.51
2022-10-29T23:36:27.029Z,74.48
2022-10-29T23:38:58.799Z,74.68
2022-10-29T23:41:29.935Z,74.58
2022-10-29T23:43:57.450Z,74.36
2022-10-29T23:46:24.403Z,74.17
2022-10-29T23:48:51.455Z,74.35
2022-10-29T23:51:18.884Z,74.25
2022-10-29T23:53:45.919Z,74.14
2022-10-29T23:56:12.819Z,74.36
2022-10-29T23:58:39.962Z,74.98
